sensor_id;sensor_type;location;lat;lon;timestamp;P1;durP1;ratioP1;P2;durP2;ratioP2
77938;SDS011;67136;47.546;21.630;2023-08-01T00:00:57;5.28;;;1.77;;
77938;SDS011;67136;47.546;21.630;2023-08-01T00:04:01;6.53;;;2.10;;
77938;SDS011;67136;47.546;21.630;2023-08-01T00:07:03;3.53;;;2.00;;
77938;SDS011;67136;47.546;21.630;2023-08-01T00:10:06;4.53;;;1.90;;
77938;SDS011;67136;47.546;21.630;2023-08-01T00:13:09;2.60;;;1.98;;
77938;SDS011;67136;47.546;21.630;2023-08-01T00:16:12;4.72;;;1.98;;
77938;SDS011;67136;47.546;21.630;2023-08-01T00:19:14;3.45;;;1.98;;
77938;SDS011;67136;47.546;21.630;2023-08-01T00:22:17;5.37;;;2.22;;
77938;SDS011;67136;47.546;21.630;2023-08-01T00:25:20;4.53;;;2.17;;
77938;SDS011;67136;47.546;21.630;2023-08-01T00:28:22;3.92;;;2.20;;
77938;SDS011;67136;47.546;21.630;2023-08-01T00:31:25;5.90;;;2.60;;
77938;SDS011;67136;47.546;21.630;2023-08-01T00:34:28;4.10;;;2.05;;
77938;SDS011;67136;47.546;21.630;2023-08-01T00:37:30;5.18;;;2.30;;
77938;SDS011;67136;47.546;21.630;2023-08-01T00:40:33;4.40;;;2.43;;
77938;SDS011;67136;47.546;21.630;2023-08-01T00:43:36;4.10;;;2.20;;
77938;SDS011;67136;47.546;21.630;2023-08-01T00:46:39;4.43;;;2.03;;
77938;SDS011;67136;47.546;21.630;2023-08-01T00:49:42;4.82;;;2.20;;
77938;SDS011;67136;47.546;21.630;2023-08-01T00:52:46;4.00;;;2.20;;
77938;SDS011;67136;47.546;21.630;2023-08-01T00:55:51;5.10;;;2.20;;
77938;SDS011;67136;47.546;21.630;2023-08-01T00:58:55;5.57;;;2.08;;
77938;SDS011;67136;47.546;21.630;2023-08-01T01:02:01;3.60;;;2.22;;
77938;SDS011;67136;47.546;21.630;2023-08-01T01:05:04;4.10;;;2.35;;
77938;SDS011;67136;47.546;21.630;2023-08-01T01:08:07;8.07;;;2.55;;
77938;SDS011;67136;47.546;21.630;2023-08-01T01:11:10;7.87;;;2.27;;
77938;SDS011;67136;47.546;21.630;2023-08-01T01:14:12;5.78;;;2.85;;
77938;SDS011;67136;47.546;21.630;2023-08-01T01:17:16;5.57;;;2.58;;
77938;SDS011;67136;47.546;21.630;2023-08-01T01:20:24;3.45;;;2.00;;
77938;SDS011;67136;47.546;21.630;2023-08-01T01:23:27;6.50;;;2.65;;
77938;SDS011;67136;47.546;21.630;2023-08-01T01:26:31;5.90;;;2.33;;
77938;SDS011;67136;47.546;21.630;2023-08-01T01:29:35;5.12;;;2.53;;
77938;SDS011;67136;47.546;21.630;2023-08-01T01:32:39;6.00;;;3.50;;
77938;SDS011;67136;47.546;21.630;2023-08-01T01:35:42;6.70;;;3.15;;
77938;SDS011;67136;47.546;21.630;2023-08-01T01:38:44;5.57;;;2.83;;
77938;SDS011;67136;47.546;21.630;2023-08-01T01:41:48;5.20;;;2.60;;
77938;SDS011;67136;47.546;21.630;2023-08-01T01:44:51;7.85;;;2.72;;
77938;SDS011;67136;47.546;21.630;2023-08-01T01:47:53;5.85;;;2.60;;
77938;SDS011;67136;47.546;21.630;2023-08-01T01:50:56;6.75;;;2.65;;
77938;SDS011;67136;47.546;21.630;2023-08-01T01:53:59;6.03;;;3.62;;
77938;SDS011;67136;47.546;21.630;2023-08-01T01:57:01;4.73;;;2.90;;
77938;SDS011;67136;47.546;21.630;2023-08-01T02:00:04;4.62;;;2.65;;
77938;SDS011;67136;47.546;21.630;2023-08-01T02:03:13;7.37;;;2.65;;
77938;SDS011;67136;47.546;21.630;2023-08-01T02:06:16;5.93;;;2.70;;
77938;SDS011;67136;47.546;21.630;2023-08-01T02:09:19;5.30;;;2.70;;
77938;SDS011;67136;47.546;21.630;2023-08-01T02:12:21;4.93;;;2.83;;
77938;SDS011;67136;47.546;21.630;2023-08-01T02:15:24;7.25;;;2.95;;
77938;SDS011;67136;47.546;21.630;2023-08-01T02:18:27;7.12;;;3.35;;
77938;SDS011;67136;47.546;21.630;2023-08-01T02:21:29;4.18;;;2.50;;
77938;SDS011;67136;47.546;21.630;2023-08-01T02:24:32;4.43;;;2.65;;
77938;SDS011;67136;47.546;21.630;2023-08-01T02:27:34;6.50;;;2.70;;
77938;SDS011;67136;47.546;21.630;2023-08-01T02:30:37;6.87;;;2.60;;
77938;SDS011;67136;47.546;21.630;2023-08-01T02:33:40;5.30;;;2.42;;
77938;SDS011;67136;47.546;21.630;2023-08-01T02:36:43;6.82;;;2.70;;
77938;SDS011;67136;47.546;21.630;2023-08-01T02:39:46;11.95;;;2.37;;
77938;SDS011;67136;47.546;21.630;2023-08-01T02:42:49;5.93;;;2.80;;
77938;SDS011;67136;47.546;21.630;2023-08-01T02:45:51;7.80;;;2.50;;
77938;SDS011;67136;47.546;21.630;2023-08-01T02:48:54;5.15;;;2.65;;
77938;SDS011;67136;47.546;21.630;2023-08-01T02:51:56;6.93;;;2.67;;
77938;SDS011;67136;47.546;21.630;2023-08-01T02:54:59;6.32;;;2.78;;
77938;SDS011;67136;47.546;21.630;2023-08-01T02:58:02;5.77;;;2.43;;
77938;SDS011;67136;47.546;21.630;2023-08-01T03:01:08;3.85;;;2.83;;
77938;SDS011;67136;47.546;21.630;2023-08-01T03:04:12;5.15;;;2.95;;
77938;SDS011;67136;47.546;21.630;2023-08-01T03:07:14;4.15;;;2.62;;
77938;SDS011;67136;47.546;21.630;2023-08-01T03:10:17;4.82;;;2.90;;
77938;SDS011;67136;47.546;21.630;2023-08-01T03:13:37;4.63;;;2.60;;
77938;SDS011;67136;47.546;21.630;2023-08-01T03:16:40;6.15;;;3.03;;
77938;SDS011;67136;47.546;21.630;2023-08-01T03:19:43;6.00;;;2.67;;
77938;SDS011;67136;47.546;21.630;2023-08-01T03:22:45;6.60;;;3.20;;
77938;SDS011;67136;47.546;21.630;2023-08-01T03:25:48;4.75;;;2.70;;
77938;SDS011;67136;47.546;21.630;2023-08-01T03:28:51;7.03;;;2.57;;
77938;SDS011;67136;47.546;21.630;2023-08-01T03:31:54;7.47;;;2.78;;
77938;SDS011;67136;47.546;21.630;2023-08-01T03:34:56;5.50;;;2.87;;
77938;SDS011;67136;47.546;21.630;2023-08-01T03:37:59;6.32;;;2.90;;
77938;SDS011;67136;47.546;21.630;2023-08-01T03:41:01;4.00;;;2.80;;
77938;SDS011;67136;47.546;21.630;2023-08-01T03:44:06;4.37;;;2.50;;
77938;SDS011;67136;47.546;21.630;2023-08-01T03:47:08;6.05;;;2.95;;
77938;SDS011;67136;47.546;21.630;2023-08-01T03:50:11;5.50;;;2.62;;
77938;SDS011;67136;47.546;21.630;2023-08-01T03:53:16;7.43;;;3.03;;
77938;SDS011;67136;47.546;21.630;2023-08-01T03:56:18;5.47;;;3.10;;
77938;SDS011;67136;47.546;21.630;2023-08-01T03:59:21;11.23;;;3.40;;
77938;SDS011;67136;47.546;21.630;2023-08-01T04:02:24;6.93;;;3.03;;
77938;SDS011;67136;47.546;21.630;2023-08-01T04:05:27;6.22;;;3.03;;
77938;SDS011;67136;47.546;21.630;2023-08-01T04:08:30;7.18;;;3.30;;
77938;SDS011;67136;47.546;21.630;2023-08-01T04:11:33;5.82;;;3.30;;
77938;SDS011;67136;47.546;21.630;2023-08-01T04:14:36;5.57;;;3.17;;
77938;SDS011;67136;47.546;21.630;2023-08-01T04:17:38;6.15;;;3.00;;
77938;SDS011;67136;47.546;21.630;2023-08-01T04:20:41;7.62;;;3.30;;
77938;SDS011;67136;47.546;21.630;2023-08-01T04:23:44;7.90;;;3.28;;
77938;SDS011;67136;47.546;21.630;2023-08-01T04:26:46;5.18;;;3.37;;
77938;SDS011;67136;47.546;21.630;2023-08-01T04:29:49;8.20;;;3.80;;
77938;SDS011;67136;47.546;21.630;2023-08-01T04:32:52;7.85;;;3.30;;
77938;SDS011;67136;47.546;21.630;2023-08-01T04:35:54;4.37;;;2.90;;
77938;SDS011;67136;47.546;21.630;2023-08-01T04:38:57;7.68;;;3.05;;
77938;SDS011;67136;47.546;21.630;2023-08-01T04:42:00;9.98;;;3.45;;
77938;SDS011;67136;47.546;21.630;2023-08-01T04:45:02;4.47;;;2.80;;
77938;SDS011;67136;47.546;21.630;2023-08-01T04:48:06;7.37;;;3.10;;
77938;SDS011;67136;47.546;21.630;2023-08-01T04:51:08;6.80;;;3.40;;
77938;SDS011;67136;47.546;21.630;2023-08-01T04:54:11;9.52;;;3.60;;
77938;SDS011;67136;47.546;21.630;2023-08-01T04:57:13;8.68;;;3.47;;
77938;SDS011;67136;47.546;21.630;2023-08-01T05:00:16;12.67;;;3.67;;
77938;SDS011;67136;47.546;21.630;2023-08-01T05:03:19;6.30;;;3.30;;
77938;SDS011;67136;47.546;21.630;2023-08-01T05:06:22;9.98;;;3.37;;
77938;SDS011;67136;47.546;21.630;2023-08-01T05:09:24;11.23;;;2.92;;
77938;SDS011;67136;47.546;21.630;2023-08-01T05:12:27;8.25;;;2.95;;
77938;SDS011;67136;47.546;21.630;2023-08-01T05:15:30;6.67;;;2.90;;
77938;SDS011;67136;47.546;21.630;2023-08-01T05:18:33;5.95;;;2.90;;
77938;SDS011;67136;47.546;21.630;2023-08-01T05:21:35;9.55;;;3.00;;
77938;SDS011;67136;47.546;21.630;2023-08-01T05:24:38;8.63;;;3.47;;
77938;SDS011;67136;47.546;21.630;2023-08-01T05:27:40;7.53;;;3.05;;
77938;SDS011;67136;47.546;21.630;2023-08-01T05:30:43;12.00;;;3.20;;
77938;SDS011;67136;47.546;21.630;2023-08-01T05:33:47;5.12;;;2.97;;
77938;SDS011;67136;47.546;21.630;2023-08-01T05:36:49;10.40;;;2.60;;
77938;SDS011;67136;47.546;21.630;2023-08-01T05:39:52;4.75;;;2.45;;
77938;SDS011;67136;47.546;21.630;2023-08-01T05:42:55;10.35;;;2.92;;
77938;SDS011;67136;47.546;21.630;2023-08-01T05:45:57;11.63;;;2.70;;
77938;SDS011;67136;47.546;21.630;2023-08-01T05:49:00;5.85;;;2.50;;
77938;SDS011;67136;47.546;21.630;2023-08-01T05:52:02;9.48;;;2.50;;
77938;SDS011;67136;47.546;21.630;2023-08-01T05:55:06;7.95;;;2.30;;
77938;SDS011;67136;47.546;21.630;2023-08-01T05:58:08;5.00;;;2.37;;
77938;SDS011;67136;47.546;21.630;2023-08-01T06:01:11;5.90;;;2.67;;
77938;SDS011;67136;47.546;21.630;2023-08-01T06:04:14;5.00;;;2.30;;
77938;SDS011;67136;47.546;21.630;2023-08-01T06:07:17;8.02;;;2.28;;
77938;SDS011;67136;47.546;21.630;2023-08-01T06:10:25;6.47;;;2.30;;
77938;SDS011;67136;47.546;21.630;2023-08-01T06:13:27;4.93;;;2.22;;
77938;SDS011;67136;47.546;21.630;2023-08-01T06:16:30;4.60;;;2.20;;
77938;SDS011;67136;47.546;21.630;2023-08-01T06:19:33;7.03;;;2.25;;
77938;SDS011;67136;47.546;21.630;2023-08-01T06:22:35;7.90;;;2.17;;
77938;SDS011;67136;47.546;21.630;2023-08-01T06:25:38;12.90;;;2.70;;
77938;SDS011;67136;47.546;21.630;2023-08-01T06:28:41;5.90;;;2.47;;
77938;SDS011;67136;47.546;21.630;2023-08-01T06:31:44;10.83;;;2.73;;
77938;SDS011;67136;47.546;21.630;2023-08-01T06:34:46;7.18;;;2.15;;
77938;SDS011;67136;47.546;21.630;2023-08-01T06:37:49;6.68;;;2.33;;
77938;SDS011;67136;47.546;21.630;2023-08-01T06:40:51;12.02;;;2.42;;
77938;SDS011;67136;47.546;21.630;2023-08-01T06:43:54;8.05;;;2.42;;
77938;SDS011;67136;47.546;21.630;2023-08-01T06:46:57;6.53;;;2.20;;
77938;SDS011;67136;47.546;21.630;2023-08-01T06:49:59;7.60;;;2.40;;
77938;SDS011;67136;47.546;21.630;2023-08-01T06:53:02;5.68;;;2.40;;
77938;SDS011;67136;47.546;21.630;2023-08-01T06:56:04;6.45;;;1.90;;
77938;SDS011;67136;47.546;21.630;2023-08-01T06:59:07;7.75;;;2.00;;
77938;SDS011;67136;47.546;21.630;2023-08-01T07:02:09;4.47;;;2.00;;
77938;SDS011;67136;47.546;21.630;2023-08-01T07:05:13;8.85;;;2.00;;
77938;SDS011;67136;47.546;21.630;2023-08-01T07:08:15;6.72;;;2.00;;
77938;SDS011;67136;47.546;21.630;2023-08-01T07:11:18;5.40;;;1.92;;
77938;SDS011;67136;47.546;21.630;2023-08-01T07:14:21;7.22;;;2.17;;
77938;SDS011;67136;47.546;21.630;2023-08-01T07:17:23;5.30;;;2.17;;
77938;SDS011;67136;47.546;21.630;2023-08-01T07:20:26;6.05;;;2.00;;
77938;SDS011;67136;47.546;21.630;2023-08-01T07:23:29;4.85;;;2.10;;
77938;SDS011;67136;47.546;21.630;2023-08-01T07:26:32;8.95;;;2.22;;
77938;SDS011;67136;47.546;21.630;2023-08-01T07:29:35;6.82;;;1.77;;
77938;SDS011;67136;47.546;21.630;2023-08-01T07:32:38;6.20;;;1.70;;
77938;SDS011;67136;47.546;21.630;2023-08-01T07:35:41;8.18;;;2.05;;
77938;SDS011;67136;47.546;21.630;2023-08-01T07:38:43;10.63;;;1.77;;
77938;SDS011;67136;47.546;21.630;2023-08-01T07:41:46;6.97;;;1.80;;
77938;SDS011;67136;47.546;21.630;2023-08-01T07:44:49;5.75;;;1.80;;
77938;SDS011;67136;47.546;21.630;2023-08-01T07:47:51;8.27;;;1.80;;
77938;SDS011;67136;47.546;21.630;2023-08-01T07:50:54;6.30;;;2.12;;
77938;SDS011;67136;47.546;21.630;2023-08-01T07:53:56;4.85;;;1.80;;
77938;SDS011;67136;47.546;21.630;2023-08-01T07:56:59;3.97;;;1.62;;
77938;SDS011;67136;47.546;21.630;2023-08-01T08:00:02;6.18;;;2.20;;
77938;SDS011;67136;47.546;21.630;2023-08-01T08:03:14;3.87;;;1.53;;
77938;SDS011;67136;47.546;21.630;2023-08-01T08:06:16;5.60;;;1.60;;
77938;SDS011;67136;47.546;21.630;2023-08-01T08:09:19;5.28;;;1.67;;
77938;SDS011;67136;47.546;21.630;2023-08-01T08:12:22;4.65;;;1.70;;
77938;SDS011;67136;47.546;21.630;2023-08-01T08:15:25;7.90;;;1.90;;
77938;SDS011;67136;47.546;21.630;2023-08-01T08:18:28;4.70;;;1.50;;
77938;SDS011;67136;47.546;21.630;2023-08-01T08:21:31;8.30;;;1.50;;
77938;SDS011;67136;47.546;21.630;2023-08-01T08:24:33;6.00;;;1.55;;
77938;SDS011;67136;47.546;21.630;2023-08-01T08:27:39;8.82;;;1.65;;
77938;SDS011;67136;47.546;21.630;2023-08-01T08:30:42;10.02;;;1.67;;
77938;SDS011;67136;47.546;21.630;2023-08-01T08:33:44;3.50;;;1.50;;
77938;SDS011;67136;47.546;21.630;2023-08-01T08:36:47;6.53;;;1.40;;
77938;SDS011;67136;47.546;21.630;2023-08-01T08:39:52;5.28;;;1.50;;
77938;SDS011;67136;47.546;21.630;2023-08-01T08:42:54;6.25;;;1.50;;
77938;SDS011;67136;47.546;21.630;2023-08-01T08:46:00;3.92;;;1.75;;
77938;SDS011;67136;47.546;21.630;2023-08-01T08:49:03;6.47;;;1.80;;
77938;SDS011;67136;47.546;21.630;2023-08-01T08:52:06;4.12;;;1.48;;
77938;SDS011;67136;47.546;21.630;2023-08-01T08:55:11;2.97;;;1.60;;
77938;SDS011;67136;47.546;21.630;2023-08-01T08:58:14;8.98;;;1.58;;
77938;SDS011;67136;47.546;21.630;2023-08-01T09:01:18;3.58;;;1.20;;
77938;SDS011;67136;47.546;21.630;2023-08-01T09:04:21;6.30;;;1.30;;
77938;SDS011;67136;47.546;21.630;2023-08-01T09:07:24;5.50;;;1.27;;
77938;SDS011;67136;47.546;21.630;2023-08-01T09:10:31;3.85;;;1.77;;
77938;SDS011;67136;47.546;21.630;2023-08-01T09:13:34;5.85;;;1.35;;
77938;SDS011;67136;47.546;21.630;2023-08-01T09:16:37;2.92;;;1.27;;
77938;SDS011;67136;47.546;21.630;2023-08-01T09:19:42;4.73;;;1.10;;
77938;SDS011;67136;47.546;21.630;2023-08-01T09:22:45;7.47;;;1.98;;
77938;SDS011;67136;47.546;21.630;2023-08-01T09:25:49;6.87;;;1.60;;
77938;SDS011;67136;47.546;21.630;2023-08-01T09:28:55;6.62;;;1.23;;
77938;SDS011;67136;47.546;21.630;2023-08-01T09:31:59;5.07;;;1.42;;
77938;SDS011;67136;47.546;21.630;2023-08-01T09:35:01;3.03;;;1.40;;
77938;SDS011;67136;47.546;21.630;2023-08-01T09:38:06;4.90;;;1.12;;
77938;SDS011;67136;47.546;21.630;2023-08-01T09:41:16;3.45;;;1.50;;
77938;SDS011;67136;47.546;21.630;2023-08-01T09:44:22;5.68;;;1.40;;
77938;SDS011;67136;47.546;21.630;2023-08-01T09:47:24;4.90;;;1.30;;
77938;SDS011;67136;47.546;21.630;2023-08-01T09:50:39;4.53;;;1.30;;
77938;SDS011;67136;47.546;21.630;2023-08-01T09:53:55;5.82;;;1.52;;
77938;SDS011;67136;47.546;21.630;2023-08-01T09:56:59;2.87;;;1.20;;
77938;SDS011;67136;47.546;21.630;2023-08-01T10:00:06;2.90;;;1.20;;
77938;SDS011;67136;47.546;21.630;2023-08-01T10:03:12;6.20;;;1.27;;
77938;SDS011;67136;47.546;21.630;2023-08-01T10:06:20;2.40;;;1.40;;
77938;SDS011;67136;47.546;21.630;2023-08-01T10:09:24;3.80;;;1.17;;
77938;SDS011;67136;47.546;21.630;2023-08-01T10:12:27;3.95;;;1.10;;
77938;SDS011;67136;47.546;21.630;2023-08-01T10:15:30;3.80;;;1.20;;
77938;SDS011;67136;47.546;21.630;2023-08-01T10:18:33;3.50;;;1.40;;
77938;SDS011;67136;47.546;21.630;2023-08-01T10:21:40;2.43;;;1.17;;
77938;SDS011;67136;47.546;21.630;2023-08-01T10:24:45;10.00;;;2.03;;
77938;SDS011;67136;47.546;21.630;2023-08-01T10:28:02;8.68;;;1.30;;
77938;SDS011;67136;47.546;21.630;2023-08-01T10:31:15;9.90;;;1.70;;
77938;SDS011;67136;47.546;21.630;2023-08-01T10:34:18;6.93;;;1.70;;
77938;SDS011;67136;47.546;21.630;2023-08-01T10:37:25;4.50;;;1.63;;
77938;SDS011;67136;47.546;21.630;2023-08-01T10:40:35;4.87;;;1.27;;
77938;SDS011;67136;47.546;21.630;2023-08-01T10:43:39;4.68;;;1.33;;
77938;SDS011;67136;47.546;21.630;2023-08-01T10:49:55;3.87;;;1.40;;
77938;SDS011;67136;47.546;21.630;2023-08-01T10:53:04;4.37;;;1.47;;
77938;SDS011;67136;47.546;21.630;2023-08-01T10:56:15;3.35;;;1.25;;
77938;SDS011;67136;47.546;21.630;2023-08-01T10:59:20;5.87;;;1.60;;
77938;SDS011;67136;47.546;21.630;2023-08-01T11:02:25;6.55;;;1.50;;
77938;SDS011;67136;47.546;21.630;2023-08-01T11:05:29;4.93;;;1.42;;
77938;SDS011;67136;47.546;21.630;2023-08-01T11:08:38;4.33;;;1.97;;
77938;SDS011;67136;47.546;21.630;2023-08-01T11:11:42;3.87;;;1.30;;
77938;SDS011;67136;47.546;21.630;2023-08-01T11:14:44;4.47;;;1.62;;
77938;SDS011;67136;47.546;21.630;2023-08-01T11:17:50;7.53;;;1.30;;
77938;SDS011;67136;47.546;21.630;2023-08-01T11:20:54;3.87;;;1.80;;
77938;SDS011;67136;47.546;21.630;2023-08-01T11:23:57;5.53;;;1.40;;
77938;SDS011;67136;47.546;21.630;2023-08-01T11:27:00;3.37;;;1.45;;
77938;SDS011;67136;47.546;21.630;2023-08-01T11:30:02;4.45;;;1.62;;
77938;SDS011;67136;47.546;21.630;2023-08-01T11:33:18;3.80;;;1.30;;
77938;SDS011;67136;47.546;21.630;2023-08-01T11:36:26;2.40;;;1.45;;
77938;SDS011;67136;47.546;21.630;2023-08-01T11:39:30;5.77;;;1.17;;
77938;SDS011;67136;47.546;21.630;2023-08-01T11:42:32;3.03;;;1.27;;
77938;SDS011;67136;47.546;21.630;2023-08-01T11:45:35;6.70;;;1.58;;
77938;SDS011;67136;47.546;21.630;2023-08-01T11:48:38;4.32;;;1.70;;
77938;SDS011;67136;47.546;21.630;2023-08-01T11:51:42;6.40;;;1.37;;
77938;SDS011;67136;47.546;21.630;2023-08-01T11:54:45;3.80;;;1.50;;
77938;SDS011;67136;47.546;21.630;2023-08-01T11:57:54;4.55;;;1.30;;
77938;SDS011;67136;47.546;21.630;2023-08-01T12:01:09;4.03;;;1.50;;
77938;SDS011;67136;47.546;21.630;2023-08-01T12:04:25;4.75;;;1.50;;
77938;SDS011;67136;47.546;21.630;2023-08-01T12:07:29;2.75;;;1.30;;
77938;SDS011;67136;47.546;21.630;2023-08-01T12:10:41;2.37;;;1.20;;
77938;SDS011;67136;47.546;21.630;2023-08-01T12:13:45;3.12;;;1.30;;
77938;SDS011;67136;47.546;21.630;2023-08-01T12:16:48;5.57;;;1.48;;
77938;SDS011;67136;47.546;21.630;2023-08-01T12:19:50;4.70;;;1.30;;
77938;SDS011;67136;47.546;21.630;2023-08-01T12:22:53;4.28;;;1.30;;
77938;SDS011;67136;47.546;21.630;2023-08-01T12:25:56;2.90;;;1.10;;
77938;SDS011;67136;47.546;21.630;2023-08-01T12:28:58;4.25;;;1.23;;
77938;SDS011;67136;47.546;21.630;2023-08-01T12:32:04;12.65;;;1.62;;
77938;SDS011;67136;47.546;21.630;2023-08-01T12:35:09;5.50;;;1.42;;
77938;SDS011;67136;47.546;21.630;2023-08-01T12:38:12;2.60;;;1.12;;
77938;SDS011;67136;47.546;21.630;2023-08-01T12:41:14;4.90;;;1.40;;
77938;SDS011;67136;47.546;21.630;2023-08-01T12:44:17;5.00;;;1.42;;
77938;SDS011;67136;47.546;21.630;2023-08-01T12:47:20;6.10;;;1.40;;
77938;SDS011;67136;47.546;21.630;2023-08-01T12:50:22;6.30;;;1.50;;
77938;SDS011;67136;47.546;21.630;2023-08-01T12:53:25;2.85;;;1.30;;
77938;SDS011;67136;47.546;21.630;2023-08-01T12:56:28;4.53;;;1.07;;
77938;SDS011;67136;47.546;21.630;2023-08-01T12:59:31;2.10;;;1.27;;
77938;SDS011;67136;47.546;21.630;2023-08-01T13:02:33;3.62;;;1.65;;
77938;SDS011;67136;47.546;21.630;2023-08-01T13:05:37;1.92;;;1.30;;
77938;SDS011;67136;47.546;21.630;2023-08-01T13:08:40;2.67;;;1.30;;
77938;SDS011;67136;47.546;21.630;2023-08-01T13:11:46;3.13;;;1.40;;
77938;SDS011;67136;47.546;21.630;2023-08-01T13:14:48;3.22;;;1.40;;
77938;SDS011;67136;47.546;21.630;2023-08-01T13:17:52;2.72;;;1.33;;
77938;SDS011;67136;47.546;21.630;2023-08-01T13:20:58;4.25;;;1.27;;
77938;SDS011;67136;47.546;21.630;2023-08-01T13:24:02;4.93;;;1.50;;
77938;SDS011;67136;47.546;21.630;2023-08-01T13:27:06;4.87;;;1.40;;
77938;SDS011;67136;47.546;21.630;2023-08-01T13:30:12;1.65;;;1.10;;
77938;SDS011;67136;47.546;21.630;2023-08-01T13:33:20;2.45;;;1.17;;
77938;SDS011;67136;47.546;21.630;2023-08-01T13:36:23;4.72;;;1.40;;
77938;SDS011;67136;47.546;21.630;2023-08-01T13:39:26;5.07;;;1.00;;
77938;SDS011;67136;47.546;21.630;2023-08-01T13:42:29;3.17;;;1.20;;
77938;SDS011;67136;47.546;21.630;2023-08-01T13:45:32;2.72;;;1.40;;
77938;SDS011;67136;47.546;21.630;2023-08-01T13:48:35;4.03;;;1.45;;
77938;SDS011;67136;47.546;21.630;2023-08-01T13:51:38;3.85;;;1.48;;
77938;SDS011;67136;47.546;21.630;2023-08-01T13:54:40;4.93;;;1.33;;
77938;SDS011;67136;47.546;21.630;2023-08-01T13:57:43;5.27;;;1.27;;
77938;SDS011;67136;47.546;21.630;2023-08-01T14:00:45;4.93;;;1.30;;
77938;SDS011;67136;47.546;21.630;2023-08-01T14:03:48;7.97;;;1.33;;
77938;SDS011;67136;47.546;21.630;2023-08-01T14:06:51;3.67;;;1.40;;
77938;SDS011;67136;47.546;21.630;2023-08-01T14:09:54;4.12;;;1.40;;
77938;SDS011;67136;47.546;21.630;2023-08-01T14:12:56;3.43;;;1.57;;
77938;SDS011;67136;47.546;21.630;2023-08-01T14:16:02;3.03;;;1.23;;
77938;SDS011;67136;47.546;21.630;2023-08-01T14:19:05;6.12;;;1.40;;
77938;SDS011;67136;47.546;21.630;2023-08-01T14:22:08;4.70;;;1.23;;
77938;SDS011;67136;47.546;21.630;2023-08-01T14:25:10;3.70;;;1.20;;
77938;SDS011;67136;47.546;21.630;2023-08-01T14:28:13;3.50;;;1.30;;
77938;SDS011;67136;47.546;21.630;2023-08-01T14:31:16;4.35;;;1.50;;
77938;SDS011;67136;47.546;21.630;2023-08-01T14:34:19;4.57;;;1.15;;
77938;SDS011;67136;47.546;21.630;2023-08-01T14:37:22;4.82;;;1.30;;
77938;SDS011;67136;47.546;21.630;2023-08-01T14:40:26;5.22;;;1.40;;
77938;SDS011;67136;47.546;21.630;2023-08-01T14:43:29;3.20;;;1.23;;
77938;SDS011;67136;47.546;21.630;2023-08-01T14:46:31;4.40;;;1.65;;
77938;SDS011;67136;47.546;21.630;2023-08-01T14:49:34;4.32;;;1.35;;
77938;SDS011;67136;47.546;21.630;2023-08-01T14:52:37;2.22;;;1.23;;
77938;SDS011;67136;47.546;21.630;2023-08-01T14:55:40;6.25;;;1.58;;
77938;SDS011;67136;47.546;21.630;2023-08-01T14:58:44;2.70;;;1.40;;
77938;SDS011;67136;47.546;21.630;2023-08-01T15:01:46;3.40;;;1.42;;
77938;SDS011;67136;47.546;21.630;2023-08-01T15:04:53;4.75;;;1.42;;
77938;SDS011;67136;47.546;21.630;2023-08-01T15:07:59;5.18;;;1.40;;
77938;SDS011;67136;47.546;21.630;2023-08-01T15:11:05;5.93;;;1.35;;
77938;SDS011;67136;47.546;21.630;2023-08-01T15:14:08;2.03;;;1.27;;
77938;SDS011;67136;47.546;21.630;2023-08-01T15:17:11;3.87;;;1.60;;
77938;SDS011;67136;47.546;21.630;2023-08-01T15:20:13;3.62;;;1.35;;
77938;SDS011;67136;47.546;21.630;2023-08-01T15:23:19;5.62;;;1.52;;
77938;SDS011;67136;47.546;21.630;2023-08-01T15:26:21;6.55;;;1.30;;
77938;SDS011;67136;47.546;21.630;2023-08-01T15:29:24;5.83;;;1.73;;
77938;SDS011;67136;47.546;21.630;2023-08-01T15:32:27;4.60;;;1.50;;
77938;SDS011;67136;47.546;21.630;2023-08-01T15:35:29;3.25;;;1.30;;
77938;SDS011;67136;47.546;21.630;2023-08-01T15:38:32;4.15;;;1.37;;
77938;SDS011;67136;47.546;21.630;2023-08-01T15:41:36;8.48;;;1.42;;
77938;SDS011;67136;47.546;21.630;2023-08-01T15:44:38;4.40;;;1.43;;
77938;SDS011;67136;47.546;21.630;2023-08-01T15:47:41;2.95;;;1.30;;
77938;SDS011;67136;47.546;21.630;2023-08-01T15:50:43;2.95;;;1.40;;
77938;SDS011;67136;47.546;21.630;2023-08-01T15:53:47;4.87;;;1.42;;
77938;SDS011;67136;47.546;21.630;2023-08-01T15:56:50;4.87;;;1.42;;
77938;SDS011;67136;47.546;21.630;2023-08-01T15:59:55;4.87;;;1.63;;
77938;SDS011;67136;47.546;21.630;2023-08-01T16:02:57;3.97;;;1.30;;
77938;SDS011;67136;47.546;21.630;2023-08-01T16:06:00;3.42;;;1.30;;
77938;SDS011;67136;47.546;21.630;2023-08-01T16:09:03;4.62;;;1.40;;
77938;SDS011;67136;47.546;21.630;2023-08-01T16:12:06;4.40;;;1.50;;
77938;SDS011;67136;47.546;21.630;2023-08-01T16:15:09;4.57;;;1.73;;
77938;SDS011;67136;47.546;21.630;2023-08-01T16:18:12;3.10;;;1.42;;
77938;SDS011;67136;47.546;21.630;2023-08-01T16:21:14;7.40;;;1.80;;
77938;SDS011;67136;47.546;21.630;2023-08-01T16:24:17;5.20;;;1.70;;
77938;SDS011;67136;47.546;21.630;2023-08-01T16:27:19;4.78;;;1.55;;
77938;SDS011;67136;47.546;21.630;2023-08-01T16:30:22;5.40;;;1.60;;
77938;SDS011;67136;47.546;21.630;2023-08-01T16:33:25;4.70;;;1.60;;
77938;SDS011;67136;47.546;21.630;2023-08-01T16:36:27;4.75;;;1.30;;
77938;SDS011;67136;47.546;21.630;2023-08-01T16:39:30;2.12;;;1.25;;
77938;SDS011;67136;47.546;21.630;2023-08-01T16:42:33;4.18;;;1.58;;
77938;SDS011;67136;47.546;21.630;2023-08-01T16:45:36;6.00;;;1.43;;
77938;SDS011;67136;47.546;21.630;2023-08-01T16:48:38;5.82;;;1.37;;
77938;SDS011;67136;47.546;21.630;2023-08-01T16:51:41;4.32;;;1.10;;
77938;SDS011;67136;47.546;21.630;2023-08-01T16:54:43;2.85;;;1.30;;
77938;SDS011;67136;47.546;21.630;2023-08-01T16:57:46;5.10;;;1.62;;
77938;SDS011;67136;47.546;21.630;2023-08-01T17:00:50;2.87;;;1.13;;
77938;SDS011;67136;47.546;21.630;2023-08-01T17:03:53;3.30;;;1.40;;
77938;SDS011;67136;47.546;21.630;2023-08-01T17:06:56;3.80;;;1.42;;
77938;SDS011;67136;47.546;21.630;2023-08-01T17:10:00;3.70;;;1.60;;
77938;SDS011;67136;47.546;21.630;2023-08-01T17:13:04;5.65;;;1.73;;
77938;SDS011;67136;47.546;21.630;2023-08-01T17:16:07;3.57;;;1.43;;
77938;SDS011;67136;47.546;21.630;2023-08-01T17:19:11;3.95;;;1.37;;
77938;SDS011;67136;47.546;21.630;2023-08-01T17:22:14;4.75;;;1.60;;
77938;SDS011;67136;47.546;21.630;2023-08-01T17:25:17;4.03;;;1.60;;
77938;SDS011;67136;47.546;21.630;2023-08-01T17:28:20;3.42;;;1.40;;
77938;SDS011;67136;47.546;21.630;2023-08-01T17:31:23;3.73;;;1.20;;
77938;SDS011;67136;47.546;21.630;2023-08-01T17:34:25;4.43;;;1.33;;
77938;SDS011;67136;47.546;21.630;2023-08-01T17:37:28;8.70;;;1.45;;
77938;SDS011;67136;47.546;21.630;2023-08-01T17:40:30;3.67;;;1.65;;
77938;SDS011;67136;47.546;21.630;2023-08-01T17:43:33;3.25;;;1.80;;
77938;SDS011;67136;47.546;21.630;2023-08-01T17:46:36;6.20;;;1.63;;
77938;SDS011;67136;47.546;21.630;2023-08-01T17:49:39;4.22;;;1.62;;
77938;SDS011;67136;47.546;21.630;2023-08-01T17:52:42;4.37;;;1.60;;
77938;SDS011;67136;47.546;21.630;2023-08-01T17:55:45;6.30;;;1.73;;
77938;SDS011;67136;47.546;21.630;2023-08-01T17:58:47;6.32;;;1.90;;
77938;SDS011;67136;47.546;21.630;2023-08-01T18:01:50;5.07;;;1.90;;
77938;SDS011;67136;47.546;21.630;2023-08-01T18:04:56;3.10;;;1.55;;
77938;SDS011;67136;47.546;21.630;2023-08-01T18:07:59;4.55;;;2.03;;
77938;SDS011;67136;47.546;21.630;2023-08-01T18:11:01;5.25;;;2.58;;